EGXE

Leeming Airport

Leeming, United Kingdom
METAR EGXE 201450Z 35016KT 9999 BKN040 09/02 Q1023 BLU TEMPO 35016G26KT BLU
Observed Flight Rules
Feb-20 @ 14:50 UTC (5 hours ago) Visual Flight Rules
Wind Visibility Clouds
350° at 16 knots 10,000+ meters
  • Broken at 4,000' AGL
Temperatures Readings
Current 9°C / 48°F
Dewpoint 2°C / 36°F
Humidity 62%
Altimeter 30.21" Hg
Pressure 1023 hPa
Elevation 40
METAR EGXE 201450Z 35016KT 9999 BKN040 09/02 Q1023 BLU TEMPO 35016G26KT BLU
Observed Flight Rules
Feb-20 @ 14:50 UTC
(5 hours ago)
VFR
Wind Visibility
350° at 16 knots 10,000+ meters
Clouds
  • Broken at 4,000' AGL
Temperature Dewpoint
9°C / 48°F 2°C / 36°F
Humidity Altimeter Pressure
62% 30.21" Hg 1023 hPa